Tennis, South Dakota
Current Conditions -  °F | °C
As of 4:53 AM on Sunday 23 Nov 2014 (Local Time) from KPIR Reporting Station
Overcast Overcast  
Wind Chill: 31°   Ceiling: 8500
Heat Index: 38°   Visibility: 10mi
Dew Point: 35°   Wind: 9mph
Humidity: 89%   Direction: 280°W
Pressure: 29.52"   Gusts: NA
Location:  44.5493°N, 99.483°W
Report Text: KPIR 231053Z AUTO 28008KT 10SM FEW070 OVC085 03/02 A2952 RMK AO2 RAB0957E23 SLP008 P0000 T00330017
Loading
Personal Weather Stations






























Interactive Weather Map New forecast layout! Learn more

10-Day Weather Forecast

Advertisements
Track Severe Weather on mobile